Time,TemperatureF,DewpointF,PressureIn,WindDirection,WindDirectionDegrees,WindSpeedMPH,WindSpeedGustMPH,Humidity,HourlyPrecipIn,Conditions,Clouds,dailyrainin,SoftwareType,DateUTC
2013-04-04 00:00:00,47.1,30.4,30.27,East,82,0.0,0.0,52,0.00,CLR,,0.00,WeatherDisplay:10.37,2013-04-04 04:00:00,
2013-04-04 00:05:00,46.9,28.7,30.27,East,82,0.0,0.0,49,0.00,CLR,,0.00,WeatherDisplay:10.37,2013-04-04 04:05:00,
2013-04-04 00:10:00,46.9,27.2,30.27,East,82,3.5,3.5,46,0.00,CLR,,0.00,WeatherDisplay:10.37,2013-04-04 04:10:00,
2013-04-04 00:15:00,46.9,28.2,30.27,East,82,0.0,0.0,48,0.00,CLR,,0.00,WeatherDisplay:10.37,2013-04-04 04:15:00,
2013-04-04 00:20:00,47.0,28.3,30.27,East,82,0.0,0.0,48,0.00,CLR,,0.00,WeatherDisplay:10.37,2013-04-04 04:20:00,
2013-04-04 00:25:00,47.0,30.3,30.27,East,82,0.0,0.0,52,0.00,CLR,,0.00,WeatherDisplay:10.37,2013-04-04 04:25:00,
2013-04-04 00:30:00,46.9,30.2,30.27,East,82,0.0,0.0,52,0.00,CLR,,0.00,WeatherDisplay:10.37,2013-04-04 04:30:00,
2013-04-04 00:35:00,46.8,29.1,30.27,East,82,0.0,0.0,50,0.00,CLR,,0.00,WeatherDisplay:10.37,2013-04-04 04:35:00,
2013-04-04 00:40:00,46.6,30.4,30.27,East,82,0.0,0.0,53,0.00,CLR,,0.00,WeatherDisplay:10.37,2013-04-04 04:40:00,
2013-04-04 00:45:00,46.3,29.6,30.27,East,82,1.2,1.2,52,0.00,CLR,,0.00,WeatherDisplay:10.37,2013-04-04 04:45:00,
2013-04-04 00:50:00,46.1,29.0,30.27,East,82,0.0,0.0,51,0.00,CLR,,0.00,WeatherDisplay:10.37,2013-04-04 04:50:00,
2013-04-04 00:55:00,46.0,27.9,30.27,East,82,4.0,4.0,49,0.00,CLR,,0.00,WeatherDisplay:10.37,2013-04-04 04:55:00,
2013-04-04 01:00:00,46.3,27.7,30.27,East,92,3.0,3.0,48,0.00,CLR,,0.00,WeatherDisplay:10.37,2013-04-04 05:00:00,
2013-04-04 01:05:00,46.4,28.3,30.27,East,92,0.0,0.0,49,0.00,CLR,,0.00,WeatherDisplay:10.37,2013-04-04 05:05:00,
2013-04-04 01:10:00,46.5,27.8,30.27,East,88,2.0,2.0,48,0.00,CLR,,0.00,WeatherDisplay:10.37,2013-04-04 05:10:00,
2013-04-04 01:15:00,46.5,27.8,30.27,East,87,2.3,2.3,48,0.00,CLR,,0.00,WeatherDisplay:10.37,2013-04-04 05:15:00,
2013-04-04 01:20:00,46.4,27.8,30.27,East,82,3.5,3.5,48,0.00,CLR,,0.00,WeatherDisplay:10.37,2013-04-04 05:20:00,
2013-04-04 01:25:00,46.4,27.2,30.27,East,82,0.0,0.0,47,0.00,CLR,,0.00,WeatherDisplay:10.37,2013-04-04 05:25:00,
2013-04-04 01:30:00,46.4,27.2,30.27,East,82,2.0,2.0,47,0.00,CLR,,0.00,WeatherDisplay:10.37,2013-04-04 05:30:00,
2013-04-04 01:36:00,46.4,27.8,30.27,East,82,0.0,0.0,48,0.00,CLR,,0.00,WeatherDisplay:10.37,2013-04-04 05:36:00,
2013-04-04 01:42:00,46.3,27.7,30.27,East,82,0.0,0.0,48,0.00,CLR,,0.00,WeatherDisplay:10.37,2013-04-04 05:42:00,
2013-04-04 01:47:00,46.1,27.5,30.27,East,82,0.0,0.0,48,0.00,CLR,,0.00,WeatherDisplay:10.37,2013-04-04 05:47:00,
2013-04-04 01:52:00,46.0,26.9,30.27,East,82,0.0,0.0,47,0.00,CLR,,0.00,WeatherDisplay:10.37,2013-04-04 05:52:00,
2013-04-04 01:57:00,45.9,26.8,30.28,East,82,0.0,0.0,47,0.00,CLR,,0.00,WeatherDisplay:10.37,2013-04-04 05:57:00,
2013-04-04 02:02:00,45.9,26.8,30.28,East,82,0.0,0.0,47,0.00,CLR,,0.00,WeatherDisplay:10.37,2013-04-04 06:02:00,
2013-04-04 02:07:00,45.9,27.3,30.28,East,82,0.0,0.0,48,0.00,CLR,,0.00,WeatherDisplay:10.37,2013-04-04 06:07:00,
2013-04-04 02:12:00,45.8,26.7,30.28,East,82,0.0,0.0,47,0.00,CLR,,0.00,WeatherDisplay:10.37,2013-04-04 06:12:00,
2013-04-04 02:17:00,45.8,27.7,30.28,East,82,0.0,0.0,49,0.00,CLR,,0.00,WeatherDisplay:10.37,2013-04-04 06:17:00,
2013-04-04 02:22:00,45.7,27.6,30.28,East,82,0.0,0.0,49,0.00,CLR,,0.00,WeatherDisplay:10.37,2013-04-04 06:22:00,
2013-04-04 02:27:00,45.6,28.0,30.28,East,82,0.0,0.0,50,0.00,CLR,,0.00,WeatherDisplay:10.37,2013-04-04 06:27:00,
2013-04-04 02:32:00,45.5,27.4,30.28,East,82,0.0,0.0,49,0.00,CLR,,0.00,WeatherDisplay:10.37,2013-04-04 06:32:00,
2013-04-04 02:37:00,45.5,27.9,30.28,East,82,0.0,0.0,50,0.00,CLR,,0.00,WeatherDisplay:10.37,2013-04-04 06:37:00,
2013-04-04 02:42:00,45.4,26.8,30.27,East,82,1.0,1.0,48,0.00,CLR,,0.00,WeatherDisplay:10.37,2013-04-04 06:42:00,
2013-04-04 02:47:00,45.4,27.3,30.27,East,82,0.0,0.0,49,0.00,CLR,,0.00,WeatherDisplay:10.37,2013-04-04 06:47:00,
2013-04-04 02:52:00,45.4,26.8,30.27,East,82,0.0,0.0,48,0.00,CLR,,0.00,WeatherDisplay:10.37,2013-04-04 06:52:00,
2013-04-04 02:57:00,45.5,27.4,30.27,East,82,1.2,1.2,49,0.00,CLR,,0.00,WeatherDisplay:10.37,2013-04-04 06:57:00,
2013-04-04 03:02:00,45.5,26.9,30.27,East,82,3.5,3.5,48,0.00,CLR,,0.00,WeatherDisplay:10.37,2013-04-04 07:02:00,
2013-04-04 03:07:00,45.7,26.1,30.27,East,82,3.5,3.5,46,0.00,CLR,,0.00,WeatherDisplay:10.37,2013-04-04 07:07:00,
2013-04-04 03:12:00,45.7,26.6,30.27,East,82,1.2,0.0,47,0.00,CLR,,0.00,WeatherDisplay:10.37,2013-04-04 07:12:00,
2013-04-04 03:17:00,45.7,25.5,30.27,East,82,3.5,3.5,45,0.00,CLR,,0.00,WeatherDisplay:10.37,2013-04-04 07:17:00,
2013-04-04 03:22:00,45.7,26.1,30.26,ENE,57,4.6,4.6,46,0.00,CLR,,0.00,WeatherDisplay:10.37,2013-04-04 07:22:00,
2013-04-04 03:27:00,45.6,25.5,30.27,NE,44,3.0,3.1,45,0.00,CLR,,0.00,WeatherDisplay:10.37,2013-04-04 07:27:00,
2013-04-04 03:32:00,45.6,25.5,30.27,NE,44,3.5,3.5,45,0.00,CLR,,0.00,WeatherDisplay:10.37,2013-04-04 07:32:00,
2013-04-04 03:37:00,45.6,24.9,30.27,ENE,66,4.6,4.6,44,0.00,CLR,,0.00,WeatherDisplay:10.37,2013-04-04 07:37:00,
2013-04-04 03:42:00,45.5,24.8,30.27,East,80,3.5,3.6,44,0.00,CLR,,0.00,WeatherDisplay:10.37,2013-04-04 07:42:00,
2013-04-04 03:47:00,45.6,24.4,30.27,East,87,3.5,3.5,43,0.00,CLR,,0.00,WeatherDisplay:10.37,2013-04-04 07:47:00,
2013-04-04 03:52:00,45.6,24.4,30.27,ENE,59,3.5,3.5,43,0.00,CLR,,0.00,WeatherDisplay:10.37,2013-04-04 07:52:00,
2013-04-04 03:57:00,45.6,23.8,30.28,NE,45,3.5,3.5,42,0.00,CLR,,0.00,WeatherDisplay:10.37,2013-04-04 07:57:00,
2013-04-04 04:02:00,45.7,23.3,30.27,ESE,116,4.6,4.6,41,0.00,CLR,,0.00,WeatherDisplay:10.37,2013-04-04 08:02:00,
2013-04-04 04:07:00,45.8,23.4,30.27,East,91,5.0,5.0,41,0.00,CLR,,0.00,WeatherDisplay:10.37,2013-04-04 08:07:00,
2013-04-04 04:12:00,45.8,22.8,30.27,ENE,78,5.0,5.0,40,0.00,CLR,,0.00,WeatherDisplay:10.37,2013-04-04 08:12:00,
2013-04-04 04:17:00,45.9,23.5,30.26,ENE,69,5.0,5.0,41,0.00,CLR,,0.00,WeatherDisplay:10.37,2013-04-04 08:17:00,
2013-04-04 04:22:00,45.8,23.4,30.26,NE,45,3.5,3.5,41,0.00,CLR,,0.00,WeatherDisplay:10.37,2013-04-04 08:22:00,
2013-04-04 04:27:00,45.7,23.3,30.26,NE,34,6.0,6.0,41,0.00,CLR,,0.00,WeatherDisplay:10.37,2013-04-04 08:27:00,
2013-04-04 04:32:00,45.6,23.2,30.26,East,81,4.6,4.6,41,0.00,CLR,,0.00,WeatherDisplay:10.37,2013-04-04 08:32:00,
2013-04-04 04:37:00,45.5,23.1,30.26,ENE,57,5.8,5.8,41,0.00,CLR,,0.00,WeatherDisplay:10.37,2013-04-04 08:37:00,
2013-04-04 04:42:00,45.5,23.1,30.26,ENE,65,8.0,8.0,41,0.00,CLR,,0.00,WeatherDisplay:10.37,2013-04-04 08:42:00,
2013-04-04 04:47:00,45.4,21.9,30.26,NE,51,5.8,5.8,39,0.00,CLR,,0.00,WeatherDisplay:10.37,2013-04-04 08:47:00,
2013-04-04 04:52:00,45.4,23.0,30.26,ESE,104,5.8,5.8,41,0.00,CLR,,0.00,WeatherDisplay:10.37,2013-04-04 08:52:00,
2013-04-04 04:57:00,45.3,22.4,30.26,ENE,59,3.5,4.9,40,0.00,CLR,,0.00,WeatherDisplay:10.37,2013-04-04 08:57:00,
2013-04-04 05:02:00,45.2,21.7,30.26,ENE,67,4.0,4.0,39,0.00,CLR,,0.00,WeatherDisplay:10.37,2013-04-04 09:02:00,
2013-04-04 05:07:00,45.1,21.6,30.25,ENE,76,6.9,6.9,39,0.00,CLR,,0.00,WeatherDisplay:10.37,2013-04-04 09:07:00,
2013-04-04 05:12:00,45.1,21.6,30.26,NE,44,9.0,9.0,39,0.00,CLR,,0.00,WeatherDisplay:10.37,2013-04-04 09:12:00,
2013-04-04 05:17:00,45.0,21.5,30.26,NE,53,12.7,12.7,39,0.00,CLR,,0.00,WeatherDisplay:10.37,2013-04-04 09:17:00,
2013-04-04 05:22:00,45.0,21.5,30.27,ENE,61,4.6,4.6,39,0.00,CLR,,0.00,WeatherDisplay:10.37,2013-04-04 09:22:00,
2013-04-04 05:27:00,44.9,21.4,30.27,ENE,68,6.9,6.9,39,0.00,CLR,,0.00,WeatherDisplay:10.37,2013-04-04 09:27:00,
2013-04-04 05:32:00,44.8,20.1,30.27,ENE,58,11.5,11.5,37,0.00,CLR,,0.00,WeatherDisplay:10.37,2013-04-04 09:32:00,
2013-04-04 05:37:00,44.7,21.8,30.27,ENE,71,6.0,6.0,40,0.00,CLR,,0.00,WeatherDisplay:10.37,2013-04-04 09:37:00,
2013-04-04 05:42:00,44.6,21.1,30.27,ENE,64,3.5,3.5,39,0.00,CLR,,0.00,WeatherDisplay:10.37,2013-04-04 09:42:00,
2013-04-04 05:47:00,44.5,21.0,30.27,NE,36,7.0,7.0,39,0.00,CLR,,0.00,WeatherDisplay:10.37,2013-04-04 09:47:00,
2013-04-04 05:52:00,44.4,21.0,30.27,ENE,57,6.9,6.9,39,0.00,CLR,,0.00,WeatherDisplay:10.37,2013-04-04 09:52:00,
2013-04-04 05:57:00,44.3,20.3,30.27,East,94,11.5,11.5,38,0.00,CLR,,0.00,WeatherDisplay:10.37,2013-04-04 09:57:00,
2013-04-04 06:02:00,44.3,20.9,30.27,NE,43,6.9,6.9,39,0.00,CLR,,0.00,WeatherDisplay:10.37,2013-04-04 10:02:00,
2013-04-04 06:07:00,44.3,21.5,30.28,NE,52,6.0,6.0,40,0.00,CLR,,0.00,WeatherDisplay:10.37,2013-04-04 10:07:00,
2013-04-04 06:12:00,44.2,21.4,30.28,East,81,8.1,8.1,40,0.00,CLR,,0.00,WeatherDisplay:10.37,2013-04-04 10:12:00,
2013-04-04 06:17:00,44.1,20.7,30.28,ENE,69,13.8,13.8,39,0.00,CLR,,0.00,WeatherDisplay:10.37,2013-04-04 10:17:00,
2013-04-04 06:22:00,44.0,21.2,30.28,East,87,7.0,7.0,40,0.00,CLR,,0.00,WeatherDisplay:10.37,2013-04-04 10:22:00,
2013-04-04 06:27:00,43.9,21.1,30.28,ENE,71,11.5,11.5,40,0.00,CLR,,0.00,WeatherDisplay:10.37,2013-04-04 10:27:00,
2013-04-04 06:33:00,43.8,21.6,30.28,East,89,4.6,4.6,41,0.00,CLR,,0.00,WeatherDisplay:10.37,2013-04-04 10:33:00,
2013-04-04 06:38:00,43.8,21.6,30.29,ENE,78,9.2,9.2,41,0.00,CLR,,0.00,WeatherDisplay:10.37,2013-04-04 10:38:00,
2013-04-04 06:43:00,43.7,21.5,30.29,NE,44,15.0,15.0,41,0.00,CLR,,0.00,WeatherDisplay:10.37,2013-04-04 10:43:00,
2013-04-04 06:48:00,43.6,21.4,30.29,NE,38,9.2,9.2,41,0.00,CLR,,0.00,WeatherDisplay:10.37,2013-04-04 10:48:00,
2013-04-04 06:53:00,43.6,22.0,30.30,ENE,77,5.8,5.8,42,0.00,CLR,,0.00,WeatherDisplay:10.37,2013-04-04 10:53:00,
2013-04-04 06:58:00,43.5,21.3,30.30,NE,42,14.0,14.0,41,0.00,CLR,,0.00,WeatherDisplay:10.37,2013-04-04 10:58:00,
2013-04-04 07:03:00,43.4,21.2,30.30,ENE,71,10.4,10.4,41,0.00,CLR,,0.00,WeatherDisplay:10.37,2013-04-04 11:03:00,
2013-04-04 07:08:00,43.3,21.7,30.30,East,91,6.9,6.9,42,0.00,CLR,,0.00,WeatherDisplay:10.37,2013-04-04 11:08:00,
2013-04-04 07:13:00,43.2,21.6,30.30,NE,49,10.4,10.4,42,0.00,CLR,,0.00,WeatherDisplay:10.37,2013-04-04 11:13:00,
2013-04-04 07:18:00,43.2,22.2,30.31,ENE,68,6.9,6.9,43,0.00,CLR,,0.00,WeatherDisplay:10.37,2013-04-04 11:18:00,
2013-04-04 07:23:00,43.1,21.5,30.31,ENE,78,9.2,9.2,42,0.00,CLR,,0.00,WeatherDisplay:10.37,2013-04-04 11:23:00,
2013-04-04 07:28:00,43.0,22.0,30.30,East,96,11.5,11.5,43,0.00,CLR,,0.00,WeatherDisplay:10.37,2013-04-04 11:28:00,
2013-04-04 07:33:00,42.9,21.9,30.30,NNE,26,13.8,13.8,43,0.00,CLR,,0.00,WeatherDisplay:10.37,2013-04-04 11:33:00,
2013-04-04 07:38:00,42.8,22.4,30.30,NE,49,11.5,11.5,44,0.00,CLR,,0.00,WeatherDisplay:10.37,2013-04-04 11:38:00,
2013-04-04 07:43:00,42.7,22.8,30.30,ENE,63,11.5,11.5,45,0.00,CLR,,0.00,WeatherDisplay:10.37,2013-04-04 11:43:00,
2013-04-04 07:48:00,42.5,22.6,30.31,ENE,63,5.8,5.8,45,0.00,CLR,,0.00,WeatherDisplay:10.37,2013-04-04 11:48:00,
2013-04-04 07:53:00,42.4,23.6,30.31,ENE,76,7.0,7.0,47,0.00,CLR,,0.00,WeatherDisplay:10.37,2013-04-04 11:53:00,
2013-04-04 07:58:00,42.2,22.9,30.30,East,90,9.2,9.2,46,0.00,CLR,,0.00,WeatherDisplay:10.37,2013-04-04 11:58:00,
2013-04-04 08:03:00,42.1,23.8,30.30,NE,42,5.8,5.8,48,0.00,CLR,,0.00,WeatherDisplay:10.37,2013-04-04 12:03:00,
2013-04-04 08:08:00,41.8,25.0,30.29,NNE,30,9.2,9.2,51,0.00,CLR,,0.00,WeatherDisplay:10.37,2013-04-04 12:08:00,
2013-04-04 08:13:00,41.6,26.2,30.30,ENE,72,9.2,9.2,54,0.00,CLR,,0.00,WeatherDisplay:10.37,2013-04-04 12:13:00,
2013-04-04 08:18:00,41.3,27.2,30.30,NE,45,12.7,12.7,57,0.00,CLR,,0.00,WeatherDisplay:10.37,2013-04-04 12:18:00,
2013-04-04 08:23:00,41.1,27.4,30.29,NNE,33,10.4,10.4,58,0.00,CLR,,0.00,WeatherDisplay:10.37,2013-04-04 12:23:00,
2013-04-04 08:28:00,41.0,27.8,30.29,NE,50,4.6,4.6,59,0.00,CLR,,0.00,WeatherDisplay:10.37,2013-04-04 12:28:00,
2013-04-04 08:33:00,40.8,27.2,30.29,NNE,27,8.1,8.1,58,0.00,CLR,,0.00,WeatherDisplay:10.37,2013-04-04 12:33:00,
2013-04-04 08:38:00,40.6,27.0,30.29,NE,34,8.1,8.1,58,0.00,CLR,,0.00,WeatherDisplay:10.37,2013-04-04 12:38:00,
2013-04-04 08:43:00,40.4,27.2,30.29,ENE,65,9.2,9.2,59,0.00,CLR,,0.00,WeatherDisplay:10.37,2013-04-04 12:43:00,
2013-04-04 08:48:00,40.3,28.3,30.29,NE,51,5.8,5.8,62,0.00,CLR,,0.00,WeatherDisplay:10.37,2013-04-04 12:48:00,
2013-04-04 08:53:00,40.2,28.2,30.30,North,355,6.0,6.0,62,0.00,CLR,,0.00,WeatherDisplay:10.37,2013-04-04 12:53:00,
2013-04-04 08:58:00,40.2,28.6,30.29,NE,53,5.8,5.8,63,0.00,CLR,,0.00,WeatherDisplay:10.37,2013-04-04 12:58:00,
2013-04-04 09:03:00,40.1,28.1,30.29,ENE,61,5.0,5.0,62,0.00,CLR,,0.00,WeatherDisplay:10.37,2013-04-04 13:03:00,
2013-04-04 09:08:00,40.1,28.1,30.29,NE,44,10.4,10.4,62,0.00,CLR,,0.00,WeatherDisplay:10.37,2013-04-04 13:08:00,
2013-04-04 09:13:00,40.2,28.6,30.29,NNE,26,9.0,9.0,63,0.00,CLR,,0.00,WeatherDisplay:10.37,2013-04-04 13:13:00,
2013-04-04 09:18:00,40.2,28.6,30.29,NE,50,10.4,10.4,63,0.00,CLR,,0.00,WeatherDisplay:10.37,2013-04-04 13:18:00,
2013-04-04 09:23:00,40.3,29.1,30.29,NE,45,8.1,8.1,64,0.00,CLR,,0.00,WeatherDisplay:10.37,2013-04-04 13:23:00,
2013-04-04 09:28:00,40.3,29.8,30.29,NNE,29,5.8,5.8,66,0.00,CLR,,0.00,WeatherDisplay:10.37,2013-04-04 13:28:00,
2013-04-04 09:33:00,40.3,28.7,30.29,NE,37,11.5,11.5,63,0.00,CLR,,0.00,WeatherDisplay:10.37,2013-04-04 13:33:00,
2013-04-04 09:38:00,40.5,29.7,30.30,ENE,59,5.8,5.8,65,0.00,CLR,,0.00,WeatherDisplay:10.37,2013-04-04 13:38:00,
2013-04-04 09:43:00,40.6,29.4,30.29,NE,46,5.8,5.8,64,0.00,CLR,,0.00,WeatherDisplay:10.37,2013-04-04 13:43:00,
2013-04-04 09:48:00,40.6,29.4,30.29,NE,47,10.4,10.4,64,0.00,CLR,,0.00,WeatherDisplay:10.37,2013-04-04 13:48:00,
2013-04-04 09:53:00,40.6,29.7,30.29,NE,44,10.0,10.0,65,0.00,CLR,,0.00,WeatherDisplay:10.37,2013-04-04 13:53:00,
2013-04-04 09:58:00,40.6,30.1,30.28,ENE,63,11.5,11.5,66,0.00,CLR,,0.00,WeatherDisplay:10.37,2013-04-04 13:58:00,
2013-04-04 10:03:00,40.6,30.1,30.28,East,79,11.5,11.5,66,0.00,CLR,,0.00,WeatherDisplay:10.37,2013-04-04 14:03:00,
2013-04-04 10:08:00,40.6,30.1,30.28,NE,44,13.8,13.8,66,0.00,CLR,,0.00,WeatherDisplay:10.37,2013-04-04 14:08:00,
2013-04-04 10:13:00,40.6,30.1,30.28,ENE,59,13.8,13.8,66,0.00,CLR,,0.00,WeatherDisplay:10.37,2013-04-04 14:13:00,
2013-04-04 10:19:00,40.8,30.7,30.28,NE,52,12.7,12.7,67,0.00,CLR,,0.00,WeatherDisplay:10.37,2013-04-04 14:19:00,
2013-04-04 10:24:00,41.0,31.2,30.28,ENE,69,9.2,9.2,68,0.00,CLR,,0.00,WeatherDisplay:10.37,2013-04-04 14:24:00,
2013-04-04 10:30:00,41.2,31.1,30.27,NE,46,10.4,10.4,67,0.00,CLR,,0.00,WeatherDisplay:10.37,2013-04-04 14:30:00,
2013-04-04 10:35:00,41.4,32.0,30.26,NE,36,12.7,12.7,69,0.00,CLR,,0.00,WeatherDisplay:10.37,2013-04-04 14:35:00,
2013-04-04 10:40:00,41.6,31.8,30.26,ENE,59,6.9,6.9,68,0.00,CLR,,0.00,WeatherDisplay:10.37,2013-04-04 14:40:00,
2013-04-04 10:45:00,41.6,31.1,30.27,NE,44,12.0,12.0,66,0.00,CLR,,0.00,WeatherDisplay:10.37,2013-04-04 14:45:00,
2013-04-04 10:50:00,41.4,31.3,30.27,NE,45,13.8,13.8,67,0.00,CLR,,0.00,WeatherDisplay:10.37,2013-04-04 14:50:00,
2013-04-04 10:55:00,41.4,31.3,30.27,NE,47,10.4,10.4,67,0.00,CLR,,0.00,WeatherDisplay:10.37,2013-04-04 14:55:00,
2013-04-04 11:00:00,41.5,31.7,30.26,NE,45,11.5,11.5,68,0.00,CLR,,0.00,WeatherDisplay:10.37,2013-04-04 15:00:00,
2013-04-04 11:05:00,41.8,31.3,30.26,NE,46,13.8,13.8,66,0.00,CLR,,0.00,WeatherDisplay:10.37,2013-04-04 15:05:00,
2013-04-04 11:10:00,41.8,31.6,30.27,NE,40,10.4,10.4,67,0.00,CLR,,0.00,WeatherDisplay:10.37,2013-04-04 15:10:00,
2013-04-04 11:15:00,41.9,32.5,30.26,NE,44,10.0,10.0,69,0.00,CLR,,0.00,WeatherDisplay:10.37,2013-04-04 15:15:00,
2013-04-04 11:20:00,42.0,31.8,30.25,ENE,78,10.4,10.4,67,0.00,CLR,,0.00,WeatherDisplay:10.37,2013-04-04 15:20:00,
2013-04-04 11:25:00,42.0,32.2,30.25,NE,50,5.0,5.0,68,0.00,CLR,,0.00,WeatherDisplay:10.37,2013-04-04 15:25:00,
2013-04-04 11:31:00,42.2,32.0,30.25,East,91,11.5,11.5,67,0.00,CLR,,0.00,WeatherDisplay:10.37,2013-04-04 15:31:00,
2013-04-04 11:36:00,42.1,31.6,30.24,NE,38,13.8,13.8,66,0.00,CLR,,0.00,WeatherDisplay:10.37,2013-04-04 15:36:00,
2013-04-04 11:41:00,42.1,32.3,30.25,ENE,61,14.0,14.0,68,0.00,CLR,,0.00,WeatherDisplay:10.37,2013-04-04 15:41:00,
2013-04-04 11:46:00,42.0,31.8,30.25,ENE,72,6.9,7.8,67,0.00,CLR,,0.00,WeatherDisplay:10.37,2013-04-04 15:46:00,
2013-04-04 11:51:00,42.0,32.6,30.25,NE,56,8.1,8.1,69,0.00,CLR,,0.00,WeatherDisplay:10.37,2013-04-04 15:51:00,
2013-04-04 11:57:00,42.0,32.9,30.26,NE,38,6.9,6.9,70,0.00,CLR,,0.00,WeatherDisplay:10.37,2013-04-04 15:57:00,
2013-04-04 12:02:00,41.7,32.6,30.25,East,82,11.5,11.5,70,0.00,CLR,,0.00,WeatherDisplay:10.37,2013-04-04 16:02:00,
2013-04-04 12:07:00,41.7,33.3,30.25,NE,42,6.0,6.0,72,0.00,CLR,,0.00,WeatherDisplay:10.37,2013-04-04 16:07:00,
2013-04-04 12:12:00,41.7,33.0,30.26,ENE,70,6.9,6.9,71,0.00,CLR,,0.00,WeatherDisplay:10.37,2013-04-04 16:12:00,
2013-04-04 12:17:00,41.6,33.2,30.25,East,90,11.5,11.5,72,0.00,CLR,,0.00,WeatherDisplay:10.37,2013-04-04 16:17:00,
2013-04-04 12:22:00,41.5,33.8,30.25,NE,42,11.5,11.5,74,0.00,CLR,,0.00,WeatherDisplay:10.37,2013-04-04 16:22:00,
2013-04-04 12:27:00,41.4,34.7,30.25,NE,52,6.9,6.9,77,0.00,CLR,,0.01,WeatherDisplay:10.37,2013-04-04 16:27:00,
2013-04-04 12:32:00,41.1,34.1,30.25,ENE,71,4.6,4.6,76,0.01,RA,,0.01,WeatherDisplay:10.37,2013-04-04 16:32:00,
2013-04-04 12:37:00,40.9,34.2,30.25,NE,44,9.2,9.2,77,0.01,RA,,0.01,WeatherDisplay:10.37,2013-04-04 16:37:00,
2013-04-04 12:42:00,40.7,34.7,30.25,NE,55,5.0,5.0,79,0.02,RA,,0.02,WeatherDisplay:10.37,2013-04-04 16:42:00,
2013-04-04 12:48:00,40.4,34.7,30.24,NE,46,8.1,8.1,80,0.02,RA,,0.02,WeatherDisplay:10.37,2013-04-04 16:48:00,
2013-04-04 12:53:00,40.3,35.2,30.24,NE,42,6.9,6.9,82,0.03,RA,,0.03,WeatherDisplay:10.37,2013-04-04 16:53:00,
2013-04-04 12:58:00,40.2,35.4,30.23,NNE,30,8.0,8.0,83,0.04,RA,,0.04,WeatherDisplay:10.37,2013-04-04 16:58:00,
2013-04-04 13:03:00,40.0,35.6,30.22,NE,49,10.4,10.4,84,0.04,RA,,0.04,WeatherDisplay:10.37,2013-04-04 17:03:00,
2013-04-04 13:08:00,39.8,35.7,30.22,NNE,29,5.8,5.8,85,0.05,RA,,0.05,WeatherDisplay:10.37,2013-04-04 17:08:00,
2013-04-04 13:13:00,39.7,35.6,30.23,NNE,29,7.0,7.0,85,0.06,RA,,0.06,WeatherDisplay:10.37,2013-04-04 17:13:00,
2013-04-04 13:18:00,39.5,35.4,30.23,NE,52,6.9,6.9,85,0.07,RA,,0.07,WeatherDisplay:10.37,2013-04-04 17:18:00,
2013-04-04 13:23:00,39.3,35.5,30.22,NNE,28,8.1,8.1,86,0.08,RA,,0.08,WeatherDisplay:10.37,2013-04-04 17:23:00,
2013-04-04 13:28:00,39.2,35.7,30.23,NNE,29,4.6,4.6,87,0.09,RA,,0.10,WeatherDisplay:10.37,2013-04-04 17:28:00,
2013-04-04 13:33:00,39.1,35.8,30.24,North,9,5.0,5.0,88,0.11,RA,,0.12,WeatherDisplay:10.37,2013-04-04 17:33:00,
2013-04-04 13:38:00,39.0,35.7,30.24,North,355,4.0,4.0,88,0.11,RA,,0.12,WeatherDisplay:10.37,2013-04-04 17:38:00,
2013-04-04 13:43:00,39.0,35.7,30.24,NE,34,3.5,3.5,88,0.11,RA,,0.13,WeatherDisplay:10.37,2013-04-04 17:43:00,
2013-04-04 13:48:00,39.0,36.0,30.23,NNE,19,8.1,8.1,89,0.12,RA,,0.14,WeatherDisplay:10.37,2013-04-04 17:48:00,
2013-04-04 13:53:00,38.8,35.6,30.20,NNE,26,11.5,11.5,88,0.13,RA,,0.16,WeatherDisplay:10.37,2013-04-04 17:53:00,
2013-04-04 13:58:00,38.5,35.5,30.20,North,355,9.0,9.0,89,0.14,RA,,0.19,WeatherDisplay:10.37,2013-04-04 17:58:00,
2013-04-04 14:03:00,38.3,35.3,30.21,North,355,6.0,6.0,89,0.17,RA,,0.21,WeatherDisplay:10.37,2013-04-04 18:03:00,
2013-04-04 14:08:00,38.2,35.2,30.21,NE,44,6.9,6.9,89,0.17,RA,,0.22,WeatherDisplay:10.37,2013-04-04 18:08:00,
2013-04-04 14:13:00,38.1,35.4,30.22,NE,53,5.0,5.0,90,0.17,RA,,0.23,WeatherDisplay:10.37,2013-04-04 18:13:00,
2013-04-04 14:18:00,37.9,35.2,30.22,NE,50,6.0,6.0,90,0.17,RA,,0.24,WeatherDisplay:10.37,2013-04-04 18:18:00,
2013-04-04 14:23:00,37.8,35.1,30.22,NNE,31,5.8,5.8,90,0.17,RA,,0.25,WeatherDisplay:10.37,2013-04-04 18:23:00,
2013-04-04 14:28:00,37.6,34.9,30.21,North,5,12.7,12.7,90,0.16,RA,,0.26,WeatherDisplay:10.37,2013-04-04 18:28:00,
2013-04-04 14:33:00,37.5,34.8,30.19,ENE,57,10.4,10.4,90,0.14,RA,,0.26,WeatherDisplay:10.37,2013-04-04 18:33:00,
2013-04-04 14:38:00,37.4,34.7,30.20,NE,40,11.5,11.5,90,0.15,RA,,0.27,WeatherDisplay:10.37,2013-04-04 18:38:00,
2013-04-04 14:43:00,37.4,34.7,30.20,NNE,26,7.0,7.0,90,0.15,RA,,0.28,WeatherDisplay:10.37,2013-04-04 18:43:00,
2013-04-04 14:48:00,37.3,34.6,30.20,North,360,11.5,11.5,90,0.14,RA,,0.28,WeatherDisplay:10.37,2013-04-04 18:48:00,
2013-04-04 14:53:00,37.3,34.6,30.19,NNE,29,11.5,11.5,90,0.13,RA,,0.29,WeatherDisplay:10.37,2013-04-04 18:53:00,
2013-04-04 14:58:00,37.3,34.6,30.18,NE,43,9.2,9.2,90,0.11,RA,,0.29,WeatherDisplay:10.37,2013-04-04 18:58:00,
2013-04-04 15:03:00,37.2,34.8,30.18,NE,43,13.8,13.8,91,0.08,,,0.29,WeatherDisplay:10.37,2013-04-04 19:03:00,
2013-04-04 15:08:00,37.1,34.4,30.17,NE,34,12.7,12.7,90,0.08,RA,,0.30,WeatherDisplay:10.37,2013-04-04 19:08:00,
2013-04-04 15:13:00,37.0,34.3,30.17,NE,34,16.1,16.1,90,0.07,RA,,0.30,WeatherDisplay:10.37,2013-04-04 19:13:00,
2013-04-04 15:18:00,37.0,34.3,30.17,NNE,30,13.8,13.8,90,0.06,,,0.30,WeatherDisplay:10.37,2013-04-04 19:18:00,
2013-04-04 15:23:00,36.9,34.2,30.16,ENE,63,13.8,13.8,90,0.05,CLR,,0.30,WeatherDisplay:10.37,2013-04-04 19:23:00,
2013-04-04 15:28:00,36.8,34.1,30.17,NNE,13,11.5,11.5,90,0.05,RA,,0.31,WeatherDisplay:10.37,2013-04-04 19:28:00,
2013-04-04 15:33:00,36.6,33.9,30.14,NE,42,18.4,18.4,90,0.06,RA,,0.32,WeatherDisplay:10.37,2013-04-04 19:33:00,
2013-04-04 15:38:00,36.5,33.8,30.13,NE,46,16.1,16.1,90,0.07,RA,,0.34,WeatherDisplay:10.37,2013-04-04 19:38:00,
2013-04-04 15:43:00,36.5,33.8,30.14,ENE,64,11.5,11.5,90,0.07,RA,,0.35,WeatherDisplay:10.37,2013-04-04 19:43:00,
2013-04-04 15:48:00,36.4,34.0,30.15,North,10,12.7,12.7,91,0.07,RA,,0.35,WeatherDisplay:10.37,2013-04-04 19:48:00,
2013-04-04 15:53:00,36.3,33.9,30.14,ENE,60,15.0,15.0,91,0.07,RA,,0.37,WeatherDisplay:10.37,2013-04-04 19:53:00,
2013-04-04 15:58:00,36.1,33.5,30.11,NE,42,15.0,15.0,90,0.09,RA,,0.38,WeatherDisplay:10.37,2013-04-04 19:58:00,
2013-04-04 16:03:00,36.0,33.6,30.13,NE,37,13.8,13.8,91,0.11,RA,,0.40,WeatherDisplay:10.37,2013-04-04 20:03:00,
2013-04-04 16:08:00,35.9,33.5,30.13,ENE,64,15.0,15.0,91,0.11,RA,,0.41,WeatherDisplay:10.37,2013-04-04 20:08:00,
2013-04-04 16:13:00,35.9,33.5,30.12,ENE,72,16.1,16.1,91,0.12,RA,,0.42,WeatherDisplay:10.37,2013-04-04 20:13:00,
2013-04-04 16:18:00,35.8,33.4,30.09,NE,51,20.7,20.7,91,0.13,RA,,0.43,WeatherDisplay:10.37,2013-04-04 20:18:00,
2013-04-04 16:23:00,35.7,33.3,30.10,NNE,32,13.0,13.0,91,0.15,RA,,0.45,WeatherDisplay:10.37,2013-04-04 20:23:00,
2013-04-04 16:28:00,35.7,33.3,30.10,NE,35,20.7,20.7,91,0.15,RA,,0.46,WeatherDisplay:10.37,2013-04-04 20:28:00,
2013-04-04 16:33:00,35.6,33.2,30.10,NE,45,13.0,13.0,91,0.14,RA,,0.46,WeatherDisplay:10.37,2013-04-04 20:33:00,
2013-04-04 16:38:00,35.5,33.4,30.09,ENE,72,18.4,18.4,92,0.12,CLR,,0.46,WeatherDisplay:10.37,2013-04-04 20:38:00,
2013-04-04 16:43:00,35.5,33.4,30.07,ENE,59,13.8,13.8,92,0.12,RA,,0.47,WeatherDisplay:10.37,2013-04-04 20:43:00,
2013-04-04 16:48:00,35.5,33.4,30.08,NNE,22,17.3,17.3,92,0.14,RA,,0.49,WeatherDisplay:10.37,2013-04-04 20:48:00,
2013-04-04 16:53:00,35.5,33.4,30.11,NW,318,12.7,12.7,92,0.14,RA,,0.50,WeatherDisplay:10.37,2013-04-04 20:53:00,
2013-04-04 16:58:00,35.5,33.4,30.12,NNW,337,11.5,11.5,92,0.12,RA,,0.50,WeatherDisplay:10.37,2013-04-04 20:58:00,
2013-04-04 17:03:00,35.5,33.4,30.10,NNE,31,15.0,15.0,92,0.11,RA,,0.51,WeatherDisplay:10.37,2013-04-04 21:03:00,
2013-04-04 17:08:00,35.5,33.4,30.11,North,9,11.5,11.5,92,0.10,RA,,0.51,WeatherDisplay:10.37,2013-04-04 21:08:00,
2013-04-04 17:13:00,35.5,33.4,30.12,North,360,11.5,11.5,92,0.11,RA,,0.54,WeatherDisplay:10.37,2013-04-04 21:13:00,
2013-04-04 17:18:00,35.5,33.4,30.10,NE,53,7.0,7.0,92,0.12,RA,,0.55,WeatherDisplay:10.37,2013-04-04 21:18:00,
2013-04-04 17:23:00,35.5,33.4,30.09,NNE,30,10.4,10.4,92,0.11,RA,,0.57,WeatherDisplay:10.37,2013-04-04 21:23:00,
2013-04-04 17:28:00,35.5,33.4,30.11,NNW,333,9.2,9.2,92,0.12,RA,,0.58,WeatherDisplay:10.37,2013-04-04 21:28:00,
2013-04-04 17:33:00,35.5,33.4,30.10,ENE,64,7.0,7.0,92,0.14,RA,,0.60,WeatherDisplay:10.37,2013-04-04 21:33:00,
2013-04-04 17:38:00,35.4,33.3,30.10,NE,37,11.5,11.5,92,0.15,RA,,0.61,WeatherDisplay:10.37,2013-04-04 21:38:00,
2013-04-04 17:43:00,35.4,33.3,30.10,NE,40,15.0,15.0,92,0.14,RA,,0.61,WeatherDisplay:10.37,2013-04-04 21:43:00,
2013-04-04 17:48:00,35.4,33.6,30.09,NE,46,11.5,11.5,93,0.12,,,0.62,WeatherDisplay:10.37,2013-04-04 21:48:00,
2013-04-04 17:53:00,35.4,33.3,30.09,NNW,346,9.2,9.2,92,0.12,RA,,0.62,WeatherDisplay:10.37,2013-04-04 21:53:00,
2013-04-04 17:58:00,35.4,33.3,30.11,North,5,5.8,5.8,92,0.12,RA,,0.62,WeatherDisplay:10.37,2013-04-04 21:58:00,
2013-04-04 18:03:00,35.5,33.7,30.11,NNE,33,9.2,9.2,93,0.11,CLR,,0.62,WeatherDisplay:10.37,2013-04-04 22:03:00,
2013-04-04 18:08:00,35.4,33.6,30.10,NNE,24,11.5,11.5,93,0.12,RA,,0.63,WeatherDisplay:10.37,2013-04-04 22:08:00,
2013-04-04 18:13:00,35.5,33.7,30.10,NNE,26,14.0,14.0,93,0.12,RA,,0.66,WeatherDisplay:10.37,2013-04-04 22:13:00,
2013-04-04 18:18:00,35.4,33.6,30.09,NE,55,11.5,11.5,93,0.12,RA,,0.67,WeatherDisplay:10.37,2013-04-04 22:18:00,
2013-04-04 18:23:00,35.4,33.6,30.07,NE,55,16.1,16.1,93,0.11,RA,,0.67,WeatherDisplay:10.37,2013-04-04 22:23:00,
2013-04-04 18:28:00,35.4,33.6,30.08,ENE,59,13.8,13.8,93,0.09,CLR,,0.67,WeatherDisplay:10.37,2013-04-04 22:28:00,
2013-04-04 18:33:00,35.5,33.7,30.08,NE,47,15.0,15.0,93,0.08,RA,,0.68,WeatherDisplay:10.37,2013-04-04 22:33:00,
2013-04-04 18:38:00,35.5,33.7,30.09,NNE,26,9.2,9.2,93,0.09,RA,,0.70,WeatherDisplay:10.37,2013-04-04 22:38:00,
2013-04-04 18:43:00,35.5,33.7,30.09,NE,42,6.9,6.9,93,0.10,RA,,0.71,WeatherDisplay:10.37,2013-04-04 22:43:00,
2013-04-04 18:48:00,35.4,33.6,30.10,NE,44,11.5,11.5,93,0.10,RA,,0.72,WeatherDisplay:10.37,2013-04-04 22:48:00,
2013-04-04 18:53:00,35.4,33.6,30.10,NE,50,11.5,11.5,93,0.10,RA,,0.72,WeatherDisplay:10.37,2013-04-04 22:53:00,
2013-04-04 18:58:00,35.4,33.6,30.09,NE,52,12.7,12.7,93,0.11,RA,,0.73,WeatherDisplay:10.37,2013-04-04 22:58:00,
2013-04-04 19:03:00,35.4,33.3,30.10,NNE,26,5.8,5.8,92,0.11,RA,,0.73,WeatherDisplay:10.37,2013-04-04 23:03:00,
2013-04-04 19:08:00,35.4,33.6,30.09,NE,48,10.4,10.4,93,0.10,,,0.73,WeatherDisplay:10.37,2013-04-04 23:08:00,
2013-04-04 19:13:00,35.5,33.7,30.09,North,360,10.4,10.4,93,0.08,CLR,,0.73,WeatherDisplay:10.37,2013-04-04 23:13:00,
2013-04-04 19:18:00,35.5,33.7,30.10,NNW,347,6.0,6.0,93,0.06,CLR,,0.73,WeatherDisplay:10.37,2013-04-04 23:18:00,
2013-04-04 19:23:00,35.5,33.7,30.09,NE,40,10.0,10.0,93,0.06,CLR,,0.73,WeatherDisplay:10.37,2013-04-04 23:23:00,
2013-04-04 19:28:00,35.5,33.7,30.08,NE,47,16.1,16.1,93,0.06,CLR,,0.73,WeatherDisplay:10.37,2013-04-04 23:28:00,
2013-04-04 19:33:00,35.5,33.7,30.07,NNE,19,12.7,12.7,93,0.05,CLR,,0.73,WeatherDisplay:10.37,2013-04-04 23:33:00,
2013-04-04 19:38:00,35.5,33.7,30.08,NE,35,5.8,5.8,93,0.03,CLR,,0.73,WeatherDisplay:10.37,2013-04-04 23:38:00,
2013-04-04 19:43:00,35.5,33.7,30.07,ENE,61,9.2,9.2,93,0.02,CLR,,0.73,WeatherDisplay:10.37,2013-04-04 23:43:00,
2013-04-04 19:48:00,35.5,33.7,30.07,ENE,72,11.5,11.5,93,0.02,CLR,,0.73,WeatherDisplay:10.37,2013-04-04 23:48:00,
2013-04-04 19:53:00,35.5,33.7,30.08,NNE,20,5.8,5.8,93,0.01,CLR,,0.73,WeatherDisplay:10.37,2013-04-04 23:53:00,
2013-04-04 19:58:00,35.5,33.7,30.07,NE,34,6.0,6.0,93,0.00,CLR,,0.73,WeatherDisplay:10.37,2013-04-04 23:58:00,
2013-04-04 20:03:00,35.5,33.7,30.06,NE,41,11.5,11.5,93,0.01,RA,,0.74,WeatherDisplay:10.37,2013-04-05 00:03:00,
2013-04-04 20:08:00,35.6,33.8,30.06,NE,39,15.0,15.0,93,0.01,RA,,0.74,WeatherDisplay:10.37,2013-04-05 00:08:00,
2013-04-04 20:13:00,35.6,33.8,30.05,NE,49,11.5,11.5,93,0.02,RA,,0.75,WeatherDisplay:10.37,2013-04-05 00:13:00,
2013-04-04 20:18:00,35.6,33.8,30.05,NNE,24,13.8,13.8,93,0.02,RA,,0.76,WeatherDisplay:10.37,2013-04-05 00:18:00,
2013-04-04 20:23:00,35.6,33.8,30.06,NNE,30,6.9,6.9,93,0.04,RA,,0.77,WeatherDisplay:10.37,2013-04-05 00:23:00,
2013-04-04 20:28:00,35.6,33.8,30.05,NNE,32,11.5,11.5,93,0.05,RA,,0.78,WeatherDisplay:10.37,2013-04-05 00:28:00,
2013-04-04 20:33:00,35.6,33.8,30.05,NNE,26,11.5,11.5,93,0.06,RA,,0.79,WeatherDisplay:10.37,2013-04-05 00:33:00,
2013-04-04 20:38:00,35.6,33.8,30.05,NNE,17,13.8,13.8,93,0.06,RA,,0.79,WeatherDisplay:10.37,2013-04-05 00:38:00,
2013-04-04 20:43:00,35.6,33.8,30.06,NNE,25,11.5,11.5,93,0.06,,,0.79,WeatherDisplay:10.37,2013-04-05 00:43:00,
2013-04-04 20:48:00,35.7,33.9,30.06,North,5,4.6,4.6,93,0.06,CLR,,0.79,WeatherDisplay:10.37,2013-04-05 00:48:00,
2013-04-04 20:53:00,35.7,33.9,30.06,NNE,25,6.0,6.0,93,0.07,RA,,0.80,WeatherDisplay:10.37,2013-04-05 00:53:00,
2013-04-04 20:58:00,35.7,33.9,30.05,NE,55,4.6,4.6,93,0.07,RA,,0.80,WeatherDisplay:10.37,2013-04-05 00:58:00,
2013-04-04 21:03:00,35.7,33.9,30.05,ENE,60,11.5,11.5,93,0.06,CLR,,0.80,WeatherDisplay:10.37,2013-04-05 01:03:00,
2013-04-04 21:08:00,35.7,33.9,30.05,NNE,27,10.4,10.4,93,0.06,CLR,,0.80,WeatherDisplay:10.37,2013-04-05 01:08:00,
2013-04-04 21:13:00,35.7,33.9,30.05,NE,40,4.6,4.6,93,0.05,CLR,,0.80,WeatherDisplay:10.37,2013-04-05 01:13:00,
2013-04-04 21:18:00,35.7,33.9,30.05,NNE,17,11.5,11.5,93,0.05,CLR,,0.80,WeatherDisplay:10.37,2013-04-05 01:18:00,
2013-04-04 21:23:00,35.7,33.9,30.05,North,9,8.1,8.1,93,0.03,CLR,,0.80,WeatherDisplay:10.37,2013-04-05 01:23:00,
2013-04-04 21:28:00,35.8,34.0,30.06,NNE,24,9.2,9.2,93,0.02,CLR,,0.80,WeatherDisplay:10.37,2013-04-05 01:28:00,
2013-04-04 21:33:00,35.8,34.0,30.06,North,360,7.0,7.0,93,0.02,RA,,0.81,WeatherDisplay:10.37,2013-04-05 01:33:00,
2013-04-04 21:38:00,35.8,34.0,30.06,NNE,31,11.5,11.5,93,0.02,RA,,0.81,WeatherDisplay:10.37,2013-04-05 01:38:00,
2013-04-04 21:43:00,35.8,34.0,30.05,NNE,27,11.5,11.5,93,0.02,,,0.81,WeatherDisplay:10.37,2013-04-05 01:43:00,
2013-04-04 21:48:00,35.9,34.1,30.05,NE,55,4.6,4.6,93,0.02,CLR,,0.81,WeatherDisplay:10.37,2013-04-05 01:48:00,
2013-04-04 21:53:00,35.9,34.1,30.04,NE,40,5.8,5.8,93,0.01,CLR,,0.81,WeatherDisplay:10.37,2013-04-05 01:53:00,
2013-04-04 21:59:00,35.9,34.1,30.04,NNE,28,8.0,8.0,93,0.01,CLR,,0.81,WeatherDisplay:10.37,2013-04-05 01:59:00,
2013-04-04 22:05:00,35.9,34.1,30.04,NE,34,11.5,11.5,93,0.01,CLR,,0.81,WeatherDisplay:10.37,2013-04-05 02:05:00,
2013-04-04 22:10:00,35.9,34.1,30.04,NE,37,7.0,7.0,93,0.01,CLR,,0.81,WeatherDisplay:10.37,2013-04-05 02:10:00,
2013-04-04 22:16:00,35.9,34.1,30.04,NNE,19,11.5,11.5,93,0.01,CLR,,0.81,WeatherDisplay:10.37,2013-04-05 02:16:00,
2013-04-04 22:22:00,36.0,34.2,30.03,NE,38,6.9,6.9,93,0.01,CLR,,0.81,WeatherDisplay:10.37,2013-04-05 02:22:00,
2013-04-04 22:27:00,36.0,34.2,30.03,NNE,19,5.8,5.8,93,0.01,CLR,,0.81,WeatherDisplay:10.37,2013-04-05 02:27:00,
2013-04-04 22:32:00,36.1,34.3,30.03,NNE,29,5.8,5.8,93,0.00,CLR,,0.81,WeatherDisplay:10.37,2013-04-05 02:32:00,
2013-04-04 22:37:00,36.1,34.5,30.03,NNE,27,3.5,0.0,94,0.00,CLR,,0.81,WeatherDisplay:10.37,2013-04-05 02:37:00,
2013-04-04 22:42:00,36.2,34.6,30.03,NNE,30,5.8,5.8,94,0.00,CLR,,0.81,WeatherDisplay:10.37,2013-04-05 02:42:00,
2013-04-04 22:47:00,36.2,34.6,30.03,NNE,18,3.5,3.5,94,0.00,CLR,,0.81,WeatherDisplay:10.37,2013-04-05 02:47:00,
2013-04-04 22:52:00,36.3,34.7,30.03,NNE,13,5.0,5.0,94,0.00,CLR,,0.81,WeatherDisplay:10.37,2013-04-05 02:52:00,
2013-04-04 22:57:00,36.3,34.7,30.03,NNE,24,5.8,5.8,94,0.00,CLR,,0.81,WeatherDisplay:10.37,2013-04-05 02:57:00,
2013-04-04 23:02:00,36.4,34.8,30.02,North,360,10.0,10.0,94,0.00,CLR,,0.81,WeatherDisplay:10.37,2013-04-05 03:02:00,
2013-04-04 23:07:00,36.4,34.8,30.02,NE,49,4.6,4.6,94,0.00,CLR,,0.81,WeatherDisplay:10.37,2013-04-05 03:07:00,
2013-04-04 23:12:00,36.4,34.8,30.01,NE,48,6.9,6.9,94,0.00,CLR,,0.81,WeatherDisplay:10.37,2013-04-05 03:12:00,
2013-04-04 23:17:00,36.5,34.9,30.01,NNE,33,6.0,6.5,94,0.00,CLR,,0.81,WeatherDisplay:10.37,2013-04-05 03:17:00,
2013-04-04 23:22:00,36.5,34.9,30.01,North,355,6.9,6.9,94,0.00,CLR,,0.81,WeatherDisplay:10.37,2013-04-05 03:22:00,
2013-04-04 23:27:00,36.5,34.9,30.01,NE,34,5.8,5.8,94,0.00,CLR,,0.81,WeatherDisplay:10.37,2013-04-05 03:27:00,
2013-04-04 23:32:00,36.6,35.0,30.01,North,360,10.4,10.4,94,0.00,CLR,,0.81,WeatherDisplay:10.37,2013-04-05 03:32:00,
2013-04-04 23:37:00,36.6,35.0,30.01,North,360,9.2,9.2,94,0.00,CLR,,0.81,WeatherDisplay:10.37,2013-04-05 03:37:00,
2013-04-04 23:42:00,36.6,35.0,30.01,North,355,5.0,5.0,94,0.00,CLR,,0.81,WeatherDisplay:10.37,2013-04-05 03:42:00,
2013-04-04 23:47:00,36.7,35.1,30.01,North,9,4.6,4.6,94,0.00,CLR,,0.81,WeatherDisplay:10.37,2013-04-05 03:47:00,
2013-04-04 23:52:00,36.8,35.2,30.01,North,9,6.9,6.9,94,0.00,CLR,,0.81,WeatherDisplay:10.37,2013-04-05 03:52:00,
2013-04-04 23:57:00,36.8,35.2,30.01,NNE,22,4.6,4.6,94,0.00,CLR,,0.81,WeatherDisplay:10.37,2013-04-05 03:57:00,